sensor_id;sensor_type;location;lat;lon;timestamp;P1;durP1;ratioP1;P2;durP2;ratioP2
71108;SDS011;59614;51.012;-1.648;2023-04-06T00:01:24;10.98;;;6.97;;
71108;SDS011;59614;51.012;-1.648;2023-04-06T00:03:50;10.95;;;6.90;;
71108;SDS011;59614;51.012;-1.648;2023-04-06T00:06:15;10.80;;;6.95;;
71108;SDS011;59614;51.012;-1.648;2023-04-06T00:08:41;11.80;;;6.60;;
71108;SDS011;59614;51.012;-1.648;2023-04-06T00:11:07;12.32;;;6.72;;
71108;SDS011;59614;51.012;-1.648;2023-04-06T00:13:32;12.40;;;6.60;;
71108;SDS011;59614;51.012;-1.648;2023-04-06T00:15:58;14.35;;;6.45;;
71108;SDS011;59614;51.012;-1.648;2023-04-06T00:18:23;9.13;;;5.82;;
71108;SDS011;59614;51.012;-1.648;2023-04-06T00:20:49;11.32;;;6.13;;
71108;SDS011;59614;51.012;-1.648;2023-04-06T00:23:16;14.25;;;6.60;;
71108;SDS011;59614;51.012;-1.648;2023-04-06T00:25:41;9.63;;;5.65;;
71108;SDS011;59614;51.012;-1.648;2023-04-06T00:28:07;11.32;;;6.00;;
71108;SDS011;59614;51.012;-1.648;2023-04-06T00:30:32;12.18;;;5.88;;
71108;SDS011;59614;51.012;-1.648;2023-04-06T00:32:58;11.02;;;6.50;;
71108;SDS011;59614;51.012;-1.648;2023-04-06T00:35:23;12.13;;;5.10;;
71108;SDS011;59614;51.012;-1.648;2023-04-06T00:37:49;23.25;;;5.95;;
71108;SDS011;59614;51.012;-1.648;2023-04-06T00:40:14;9.40;;;6.00;;
71108;SDS011;59614;51.012;-1.648;2023-04-06T00:42:40;9.65;;;5.38;;
71108;SDS011;59614;51.012;-1.648;2023-04-06T00:45:06;10.93;;;6.13;;
71108;SDS011;59614;51.012;-1.648;2023-04-06T00:47:32;11.25;;;6.35;;
71108;SDS011;59614;51.012;-1.648;2023-04-06T00:49:58;11.45;;;6.38;;
71108;SDS011;59614;51.012;-1.648;2023-04-06T00:52:24;11.90;;;6.72;;
71108;SDS011;59614;51.012;-1.648;2023-04-06T00:54:50;14.50;;;7.53;;
71108;SDS011;59614;51.012;-1.648;2023-04-06T00:57:15;18.02;;;7.95;;
71108;SDS011;59614;51.012;-1.648;2023-04-06T00:59:42;13.15;;;7.28;;
71108;SDS011;59614;51.012;-1.648;2023-04-06T01:02:08;15.70;;;8.38;;
71108;SDS011;59614;51.012;-1.648;2023-04-06T01:04:34;20.55;;;10.25;;
71108;SDS011;59614;51.012;-1.648;2023-04-06T01:07:00;17.80;;;10.18;;
71108;SDS011;59614;51.012;-1.648;2023-04-06T01:09:27;17.83;;;10.98;;
71108;SDS011;59614;51.012;-1.648;2023-04-06T01:11:53;18.55;;;10.70;;
71108;SDS011;59614;51.012;-1.648;2023-04-06T01:14:19;13.30;;;8.05;;
71108;SDS011;59614;51.012;-1.648;2023-04-06T01:16:45;11.27;;;6.80;;
71108;SDS011;59614;51.012;-1.648;2023-04-06T01:19:11;11.30;;;6.78;;
71108;SDS011;59614;51.012;-1.648;2023-04-06T01:21:37;10.77;;;6.78;;
71108;SDS011;59614;51.012;-1.648;2023-04-06T01:24:03;9.07;;;5.47;;
71108;SDS011;59614;51.012;-1.648;2023-04-06T01:26:30;8.48;;;5.30;;
71108;SDS011;59614;51.012;-1.648;2023-04-06T01:28:56;7.38;;;4.75;;
71108;SDS011;59614;51.012;-1.648;2023-04-06T01:31:21;7.47;;;4.47;;
71108;SDS011;59614;51.012;-1.648;2023-04-06T01:33:47;10.05;;;5.05;;
71108;SDS011;59614;51.012;-1.648;2023-04-06T01:36:13;7.65;;;4.30;;
71108;SDS011;59614;51.012;-1.648;2023-04-06T01:38:39;8.73;;;4.15;;
71108;SDS011;59614;51.012;-1.648;2023-04-06T01:41:06;9.02;;;4.35;;
71108;SDS011;59614;51.012;-1.648;2023-04-06T01:43:32;7.05;;;4.00;;
71108;SDS011;59614;51.012;-1.648;2023-04-06T01:45:57;5.65;;;4.05;;
71108;SDS011;59614;51.012;-1.648;2023-04-06T01:48:23;7.78;;;4.43;;
71108;SDS011;59614;51.012;-1.648;2023-04-06T01:50:48;9.85;;;4.80;;
71108;SDS011;59614;51.012;-1.648;2023-04-06T01:53:14;6.88;;;4.72;;
71108;SDS011;59614;51.012;-1.648;2023-04-06T01:55:40;8.23;;;4.93;;
71108;SDS011;59614;51.012;-1.648;2023-04-06T01:58:06;8.27;;;5.35;;
71108;SDS011;59614;51.012;-1.648;2023-04-06T02:00:31;10.88;;;5.57;;
71108;SDS011;59614;51.012;-1.648;2023-04-06T02:02:57;12.27;;;6.45;;
71108;SDS011;59614;51.012;-1.648;2023-04-06T02:05:22;9.60;;;5.70;;
71108;SDS011;59614;51.012;-1.648;2023-04-06T02:07:48;10.73;;;6.00;;
71108;SDS011;59614;51.012;-1.648;2023-04-06T02:10:14;13.80;;;6.38;;
71108;SDS011;59614;51.012;-1.648;2023-04-06T02:12:40;11.77;;;6.10;;
71108;SDS011;59614;51.012;-1.648;2023-04-06T02:15:05;17.92;;;6.57;;
71108;SDS011;59614;51.012;-1.648;2023-04-06T02:17:31;14.05;;;6.90;;
71108;SDS011;59614;51.012;-1.648;2023-04-06T02:19:57;10.07;;;6.20;;
71108;SDS011;59614;51.012;-1.648;2023-04-06T02:22:22;9.43;;;5.90;;
71108;SDS011;59614;51.012;-1.648;2023-04-06T02:24:48;11.63;;;5.38;;
71108;SDS011;59614;51.012;-1.648;2023-04-06T02:27:14;7.57;;;5.22;;
71108;SDS011;59614;51.012;-1.648;2023-04-06T02:29:39;6.30;;;4.57;;
71108;SDS011;59614;51.012;-1.648;2023-04-06T02:32:05;7.22;;;4.40;;
71108;SDS011;59614;51.012;-1.648;2023-04-06T02:34:31;9.07;;;4.22;;
71108;SDS011;59614;51.012;-1.648;2023-04-06T02:36:56;8.32;;;4.63;;
71108;SDS011;59614;51.012;-1.648;2023-04-06T02:39:22;7.07;;;4.43;;
71108;SDS011;59614;51.012;-1.648;2023-04-06T02:41:47;6.75;;;4.20;;
71108;SDS011;59614;51.012;-1.648;2023-04-06T02:44:13;9.68;;;4.30;;
71108;SDS011;59614;51.012;-1.648;2023-04-06T02:46:38;7.20;;;4.25;;
71108;SDS011;59614;51.012;-1.648;2023-04-06T02:49:04;8.32;;;4.43;;
71108;SDS011;59614;51.012;-1.648;2023-04-06T02:51:30;9.35;;;5.00;;
71108;SDS011;59614;51.012;-1.648;2023-04-06T02:53:55;11.73;;;5.38;;
71108;SDS011;59614;51.012;-1.648;2023-04-06T02:56:20;9.60;;;5.25;;
71108;SDS011;59614;51.012;-1.648;2023-04-06T02:58:46;12.05;;;5.63;;
71108;SDS011;59614;51.012;-1.648;2023-04-06T03:01:12;9.25;;;5.10;;
71108;SDS011;59614;51.012;-1.648;2023-04-06T03:03:37;10.93;;;5.03;;
71108;SDS011;59614;51.012;-1.648;2023-04-06T03:06:03;6.00;;;3.90;;
71108;SDS011;59614;51.012;-1.648;2023-04-06T03:08:28;6.15;;;3.90;;
71108;SDS011;59614;51.012;-1.648;2023-04-06T03:10:54;4.90;;;3.20;;
71108;SDS011;59614;51.012;-1.648;2023-04-06T03:13:20;7.07;;;3.17;;
71108;SDS011;59614;51.012;-1.648;2023-04-06T03:15:45;3.83;;;3.05;;
71108;SDS011;59614;51.012;-1.648;2023-04-06T03:18:11;5.13;;;3.20;;
71108;SDS011;59614;51.012;-1.648;2023-04-06T03:20:36;6.93;;;3.47;;
71108;SDS011;59614;51.012;-1.648;2023-04-06T03:23:02;7.03;;;3.20;;
71108;SDS011;59614;51.012;-1.648;2023-04-06T03:25:27;5.18;;;3.20;;
71108;SDS011;59614;51.012;-1.648;2023-04-06T03:27:53;5.30;;;3.17;;
71108;SDS011;59614;51.012;-1.648;2023-04-06T03:30:18;4.97;;;3.30;;
71108;SDS011;59614;51.012;-1.648;2023-04-06T03:32:44;8.02;;;3.20;;
71108;SDS011;59614;51.012;-1.648;2023-04-06T03:35:10;6.22;;;3.50;;
71108;SDS011;59614;51.012;-1.648;2023-04-06T03:37:35;7.75;;;3.50;;
71108;SDS011;59614;51.012;-1.648;2023-04-06T03:40:01;7.57;;;3.47;;
71108;SDS011;59614;51.012;-1.648;2023-04-06T03:42:27;8.02;;;3.30;;
71108;SDS011;59614;51.012;-1.648;2023-04-06T03:44:53;7.93;;;3.60;;
71108;SDS011;59614;51.012;-1.648;2023-04-06T03:47:18;6.40;;;3.60;;
71108;SDS011;59614;51.012;-1.648;2023-04-06T03:49:44;7.82;;;3.60;;
71108;SDS011;59614;51.012;-1.648;2023-04-06T03:52:10;9.65;;;4.28;;
71108;SDS011;59614;51.012;-1.648;2023-04-06T03:54:35;7.63;;;3.28;;
71108;SDS011;59614;51.012;-1.648;2023-04-06T03:57:01;5.55;;;3.58;;
71108;SDS011;59614;51.012;-1.648;2023-04-06T03:59:26;6.18;;;3.20;;
71108;SDS011;59614;51.012;-1.648;2023-04-06T04:01:52;5.55;;;3.55;;
71108;SDS011;59614;51.012;-1.648;2023-04-06T04:04:17;5.05;;;3.28;;
71108;SDS011;59614;51.012;-1.648;2023-04-06T04:06:43;5.35;;;3.22;;
71108;SDS011;59614;51.012;-1.648;2023-04-06T04:09:08;6.95;;;3.58;;
71108;SDS011;59614;51.012;-1.648;2023-04-06T04:11:34;5.53;;;3.65;;
71108;SDS011;59614;51.012;-1.648;2023-04-06T04:13:59;6.03;;;3.50;;
71108;SDS011;59614;51.012;-1.648;2023-04-06T04:16:25;8.38;;;3.80;;
71108;SDS011;59614;51.012;-1.648;2023-04-06T04:18:50;6.38;;;3.45;;
71108;SDS011;59614;51.012;-1.648;2023-04-06T04:21:16;4.05;;;3.00;;
71108;SDS011;59614;51.012;-1.648;2023-04-06T04:23:41;4.15;;;2.92;;
71108;SDS011;59614;51.012;-1.648;2023-04-06T04:26:06;5.03;;;3.40;;
71108;SDS011;59614;51.012;-1.648;2023-04-06T04:28:32;4.43;;;2.75;;
71108;SDS011;59614;51.012;-1.648;2023-04-06T04:30:57;4.05;;;2.78;;
71108;SDS011;59614;51.012;-1.648;2023-04-06T04:33:23;5.22;;;2.70;;
71108;SDS011;59614;51.012;-1.648;2023-04-06T04:35:48;4.10;;;2.72;;
71108;SDS011;59614;51.012;-1.648;2023-04-06T04:38:14;6.00;;;2.42;;
71108;SDS011;59614;51.012;-1.648;2023-04-06T04:40:39;5.32;;;2.58;;
71108;SDS011;59614;51.012;-1.648;2023-04-06T04:43:05;5.85;;;3.00;;
71108;SDS011;59614;51.012;-1.648;2023-04-06T04:45:30;3.88;;;2.72;;
71108;SDS011;59614;51.012;-1.648;2023-04-06T04:47:56;4.93;;;2.78;;
71108;SDS011;59614;51.012;-1.648;2023-04-06T04:50:21;4.93;;;2.90;;
71108;SDS011;59614;51.012;-1.648;2023-04-06T04:52:47;4.22;;;2.25;;
71108;SDS011;59614;51.012;-1.648;2023-04-06T04:55:12;6.50;;;1.90;;
71108;SDS011;59614;51.012;-1.648;2023-04-06T04:57:38;5.13;;;1.80;;
71108;SDS011;59614;51.012;-1.648;2023-04-06T05:00:04;7.93;;;1.73;;
71108;SDS011;59614;51.012;-1.648;2023-04-06T05:02:30;6.43;;;1.92;;
71108;SDS011;59614;51.012;-1.648;2023-04-06T05:04:56;3.83;;;1.60;;
71108;SDS011;59614;51.012;-1.648;2023-04-06T05:07:21;5.55;;;1.80;;
71108;SDS011;59614;51.012;-1.648;2023-04-06T05:09:47;7.63;;;1.92;;
71108;SDS011;59614;51.012;-1.648;2023-04-06T05:12:13;8.07;;;2.00;;
71108;SDS011;59614;51.012;-1.648;2023-04-06T05:14:38;2.47;;;1.38;;
71108;SDS011;59614;51.012;-1.648;2023-04-06T05:17:04;9.77;;;1.80;;
71108;SDS011;59614;51.012;-1.648;2023-04-06T05:19:30;5.45;;;1.70;;
71108;SDS011;59614;51.012;-1.648;2023-04-06T05:21:55;4.78;;;1.88;;
71108;SDS011;59614;51.012;-1.648;2023-04-06T05:24:21;6.78;;;1.50;;
71108;SDS011;59614;51.012;-1.648;2023-04-06T05:26:47;3.10;;;1.63;;
71108;SDS011;59614;51.012;-1.648;2023-04-06T05:29:13;10.93;;;1.90;;
71108;SDS011;59614;51.012;-1.648;2023-04-06T05:31:38;7.00;;;1.58;;
71108;SDS011;59614;51.012;-1.648;2023-04-06T05:34:04;6.80;;;1.95;;
71108;SDS011;59614;51.012;-1.648;2023-04-06T05:36:29;3.35;;;1.48;;
71108;SDS011;59614;51.012;-1.648;2023-04-06T05:38:57;5.18;;;1.70;;
71108;SDS011;59614;51.012;-1.648;2023-04-06T05:41:23;5.55;;;1.85;;
71108;SDS011;59614;51.012;-1.648;2023-04-06T05:43:49;4.30;;;1.80;;
71108;SDS011;59614;51.012;-1.648;2023-04-06T05:46:14;3.53;;;1.73;;
71108;SDS011;59614;51.012;-1.648;2023-04-06T05:48:40;8.15;;;1.80;;
71108;SDS011;59614;51.012;-1.648;2023-04-06T05:51:05;5.82;;;2.10;;
71108;SDS011;59614;51.012;-1.648;2023-04-06T05:53:31;5.40;;;1.77;;
71108;SDS011;59614;51.012;-1.648;2023-04-06T05:55:57;4.45;;;1.80;;
71108;SDS011;59614;51.012;-1.648;2023-04-06T05:58:25;5.13;;;1.85;;
71108;SDS011;59614;51.012;-1.648;2023-04-06T06:00:55;7.18;;;2.15;;
71108;SDS011;59614;51.012;-1.648;2023-04-06T06:03:22;7.05;;;2.30;;
71108;SDS011;59614;51.012;-1.648;2023-04-06T06:05:47;10.07;;;2.40;;
71108;SDS011;59614;51.012;-1.648;2023-04-06T06:08:13;15.60;;;2.67;;
71108;SDS011;59614;51.012;-1.648;2023-04-06T06:10:38;9.63;;;2.65;;
71108;SDS011;59614;51.012;-1.648;2023-04-06T06:13:05;9.05;;;2.70;;
71108;SDS011;59614;51.012;-1.648;2023-04-06T06:15:30;10.07;;;2.25;;
71108;SDS011;59614;51.012;-1.648;2023-04-06T06:17:56;7.53;;;2.30;;
71108;SDS011;59614;51.012;-1.648;2023-04-06T06:20:21;12.63;;;2.83;;
71108;SDS011;59614;51.012;-1.648;2023-04-06T06:22:47;8.43;;;2.15;;
71108;SDS011;59614;51.012;-1.648;2023-04-06T06:25:12;22.05;;;2.88;;
71108;SDS011;59614;51.012;-1.648;2023-04-06T06:27:38;14.68;;;2.60;;
71108;SDS011;59614;51.012;-1.648;2023-04-06T06:30:04;22.85;;;2.72;;
71108;SDS011;59614;51.012;-1.648;2023-04-06T06:32:30;13.60;;;2.53;;
71108;SDS011;59614;51.012;-1.648;2023-04-06T06:34:55;15.77;;;2.90;;
71108;SDS011;59614;51.012;-1.648;2023-04-06T06:37:20;15.98;;;2.88;;
71108;SDS011;59614;51.012;-1.648;2023-04-06T06:39:46;18.00;;;3.10;;
71108;SDS011;59614;51.012;-1.648;2023-04-06T06:42:11;19.85;;;3.33;;
71108;SDS011;59614;51.012;-1.648;2023-04-06T06:44:37;15.60;;;2.40;;
71108;SDS011;59614;51.012;-1.648;2023-04-06T06:47:02;13.65;;;2.80;;
71108;SDS011;59614;51.012;-1.648;2023-04-06T06:49:28;17.52;;;3.65;;
71108;SDS011;59614;51.012;-1.648;2023-04-06T06:51:53;14.65;;;2.72;;
71108;SDS011;59614;51.012;-1.648;2023-04-06T06:54:18;20.23;;;3.28;;
71108;SDS011;59614;51.012;-1.648;2023-04-06T06:56:44;9.38;;;2.88;;
71108;SDS011;59614;51.012;-1.648;2023-04-06T06:59:10;17.42;;;3.10;;
71108;SDS011;59614;51.012;-1.648;2023-04-06T07:01:36;16.88;;;3.08;;
71108;SDS011;59614;51.012;-1.648;2023-04-06T07:04:01;27.30;;;5.78;;
71108;SDS011;59614;51.012;-1.648;2023-04-06T07:06:27;21.80;;;3.60;;
71108;SDS011;59614;51.012;-1.648;2023-04-06T07:08:52;21.27;;;4.10;;
71108;SDS011;59614;51.012;-1.648;2023-04-06T07:11:18;19.48;;;4.03;;
71108;SDS011;59614;51.012;-1.648;2023-04-06T07:13:43;22.90;;;3.65;;
71108;SDS011;59614;51.012;-1.648;2023-04-06T07:16:09;16.83;;;4.13;;
71108;SDS011;59614;51.012;-1.648;2023-04-06T07:18:34;18.00;;;3.40;;
71108;SDS011;59614;51.012;-1.648;2023-04-06T07:21:00;25.85;;;3.92;;
71108;SDS011;59614;51.012;-1.648;2023-04-06T07:23:25;21.50;;;3.67;;
71108;SDS011;59614;51.012;-1.648;2023-04-06T07:25:51;17.95;;;3.35;;
71108;SDS011;59614;51.012;-1.648;2023-04-06T07:28:18;13.88;;;3.42;;
71108;SDS011;59614;51.012;-1.648;2023-04-06T07:30:43;9.57;;;3.25;;
71108;SDS011;59614;51.012;-1.648;2023-04-06T07:33:09;20.80;;;3.50;;
71108;SDS011;59614;51.012;-1.648;2023-04-06T07:35:35;14.65;;;3.80;;
71108;SDS011;59614;51.012;-1.648;2023-04-06T07:38:01;19.60;;;3.75;;
71108;SDS011;59614;51.012;-1.648;2023-04-06T07:40:27;20.85;;;3.35;;
71108;SDS011;59614;51.012;-1.648;2023-04-06T07:42:52;15.02;;;3.90;;
71108;SDS011;59614;51.012;-1.648;2023-04-06T07:45:18;17.15;;;3.53;;
71108;SDS011;59614;51.012;-1.648;2023-04-06T07:47:43;14.35;;;3.63;;
71108;SDS011;59614;51.012;-1.648;2023-04-06T07:50:09;14.23;;;3.65;;
71108;SDS011;59614;51.012;-1.648;2023-04-06T07:52:35;14.73;;;4.03;;
71108;SDS011;59614;51.012;-1.648;2023-04-06T07:55:01;21.55;;;3.45;;
71108;SDS011;59614;51.012;-1.648;2023-04-06T07:57:26;25.50;;;4.25;;
71108;SDS011;59614;51.012;-1.648;2023-04-06T07:59:52;18.33;;;3.80;;
71108;SDS011;59614;51.012;-1.648;2023-04-06T08:02:17;25.58;;;4.45;;
71108;SDS011;59614;51.012;-1.648;2023-04-06T08:04:43;17.83;;;4.10;;
71108;SDS011;59614;51.012;-1.648;2023-04-06T08:07:09;17.30;;;4.05;;
71108;SDS011;59614;51.012;-1.648;2023-04-06T08:09:34;9.77;;;3.40;;
71108;SDS011;59614;51.012;-1.648;2023-04-06T08:12:00;12.73;;;3.50;;
71108;SDS011;59614;51.012;-1.648;2023-04-06T08:14:25;14.18;;;3.70;;
71108;SDS011;59614;51.012;-1.648;2023-04-06T08:16:51;16.90;;;3.60;;
71108;SDS011;59614;51.012;-1.648;2023-04-06T08:19:16;16.77;;;4.07;;
71108;SDS011;59614;51.012;-1.648;2023-04-06T08:21:43;22.53;;;4.40;;
71108;SDS011;59614;51.012;-1.648;2023-04-06T08:24:10;16.80;;;3.40;;
71108;SDS011;59614;51.012;-1.648;2023-04-06T08:26:36;15.27;;;3.22;;
71108;SDS011;59614;51.012;-1.648;2023-04-06T08:29:01;15.60;;;3.50;;
71108;SDS011;59614;51.012;-1.648;2023-04-06T08:31:28;20.67;;;3.50;;
71108;SDS011;59614;51.012;-1.648;2023-04-06T08:33:54;18.67;;;3.20;;
71108;SDS011;59614;51.012;-1.648;2023-04-06T08:36:20;21.55;;;3.40;;
71108;SDS011;59614;51.012;-1.648;2023-04-06T08:38:47;16.10;;;3.60;;
71108;SDS011;59614;51.012;-1.648;2023-04-06T08:41:14;20.98;;;3.90;;
71108;SDS011;59614;51.012;-1.648;2023-04-06T08:43:43;14.15;;;3.60;;
71108;SDS011;59614;51.012;-1.648;2023-04-06T08:46:12;18.17;;;3.85;;
71108;SDS011;59614;51.012;-1.648;2023-04-06T08:48:38;19.63;;;5.13;;
71108;SDS011;59614;51.012;-1.648;2023-04-06T08:51:05;17.08;;;3.72;;
71108;SDS011;59614;51.012;-1.648;2023-04-06T08:53:30;13.65;;;4.25;;
71108;SDS011;59614;51.012;-1.648;2023-04-06T08:55:56;18.27;;;3.55;;
71108;SDS011;59614;51.012;-1.648;2023-04-06T08:58:23;21.27;;;3.85;;
71108;SDS011;59614;51.012;-1.648;2023-04-06T09:00:50;22.80;;;3.90;;
71108;SDS011;59614;51.012;-1.648;2023-04-06T09:03:17;18.40;;;3.90;;
71108;SDS011;59614;51.012;-1.648;2023-04-06T09:05:45;19.92;;;4.15;;
71108;SDS011;59614;51.012;-1.648;2023-04-06T09:08:12;18.85;;;4.03;;
71108;SDS011;59614;51.012;-1.648;2023-04-06T09:10:41;20.85;;;4.25;;
71108;SDS011;59614;51.012;-1.648;2023-04-06T09:13:07;23.17;;;4.05;;
71108;SDS011;59614;51.012;-1.648;2023-04-06T09:15:33;21.17;;;3.67;;
71108;SDS011;59614;51.012;-1.648;2023-04-06T09:17:59;18.42;;;4.20;;
71108;SDS011;59614;51.012;-1.648;2023-04-06T09:20:25;18.00;;;3.75;;
71108;SDS011;59614;51.012;-1.648;2023-04-06T09:22:53;14.77;;;4.00;;
71108;SDS011;59614;51.012;-1.648;2023-04-06T09:25:19;17.33;;;4.20;;
71108;SDS011;59614;51.012;-1.648;2023-04-06T09:27:47;14.82;;;3.67;;
71108;SDS011;59614;51.012;-1.648;2023-04-06T09:30:14;14.85;;;3.30;;
71108;SDS011;59614;51.012;-1.648;2023-04-06T09:35:17;17.95;;;4.22;;
71108;SDS011;59614;51.012;-1.648;2023-04-06T09:37:45;15.88;;;3.65;;
71108;SDS011;59614;51.012;-1.648;2023-04-06T09:40:12;28.23;;;3.63;;
71108;SDS011;59614;51.012;-1.648;2023-04-06T09:42:41;23.20;;;3.70;;
71108;SDS011;59614;51.012;-1.648;2023-04-06T09:45:07;20.13;;;4.13;;
71108;SDS011;59614;51.012;-1.648;2023-04-06T09:47:35;17.25;;;3.75;;
71108;SDS011;59614;51.012;-1.648;2023-04-06T09:50:01;25.33;;;3.83;;
71108;SDS011;59614;51.012;-1.648;2023-04-06T09:52:31;19.27;;;3.83;;
71108;SDS011;59614;51.012;-1.648;2023-04-06T09:55:03;20.45;;;4.45;;
71108;SDS011;59614;51.012;-1.648;2023-04-06T09:57:36;20.60;;;4.22;;
71108;SDS011;59614;51.012;-1.648;2023-04-06T10:00:10;22.35;;;4.10;;
71108;SDS011;59614;51.012;-1.648;2023-04-06T10:05:19;17.73;;;3.85;;
71108;SDS011;59614;51.012;-1.648;2023-04-06T10:07:45;20.35;;;4.07;;
71108;SDS011;59614;51.012;-1.648;2023-04-06T10:12:39;14.52;;;3.60;;
71108;SDS011;59614;51.012;-1.648;2023-04-06T10:15:05;17.25;;;4.22;;
71108;SDS011;59614;51.012;-1.648;2023-04-06T10:17:32;16.80;;;3.85;;
71108;SDS011;59614;51.012;-1.648;2023-04-06T10:20:08;16.58;;;3.45;;
71108;SDS011;59614;51.012;-1.648;2023-04-06T10:22:45;18.25;;;3.85;;
71108;SDS011;59614;51.012;-1.648;2023-04-06T10:25:25;16.55;;;3.60;;
71108;SDS011;59614;51.012;-1.648;2023-04-06T10:28:01;15.25;;;3.40;;
71108;SDS011;59614;51.012;-1.648;2023-04-06T10:30:30;16.98;;;3.65;;
71108;SDS011;59614;51.012;-1.648;2023-04-06T10:32:56;18.50;;;3.95;;
71108;SDS011;59614;51.012;-1.648;2023-04-06T10:35:21;14.85;;;3.58;;
71108;SDS011;59614;51.012;-1.648;2023-04-06T10:40:25;13.10;;;3.00;;
71108;SDS011;59614;51.012;-1.648;2023-04-06T10:42:52;15.85;;;4.10;;
71108;SDS011;59614;51.012;-1.648;2023-04-06T10:45:23;18.75;;;3.65;;
71108;SDS011;59614;51.012;-1.648;2023-04-06T10:47:53;15.70;;;2.95;;
71108;SDS011;59614;51.012;-1.648;2023-04-06T10:50:19;16.70;;;3.80;;
71108;SDS011;59614;51.012;-1.648;2023-04-06T10:52:46;14.07;;;2.95;;
71108;SDS011;59614;51.012;-1.648;2023-04-06T10:55:16;15.70;;;2.95;;
71108;SDS011;59614;51.012;-1.648;2023-04-06T10:57:41;18.55;;;3.22;;
71108;SDS011;59614;51.012;-1.648;2023-04-06T11:00:07;16.58;;;3.08;;
71108;SDS011;59614;51.012;-1.648;2023-04-06T11:02:34;8.87;;;2.90;;
71108;SDS011;59614;51.012;-1.648;2023-04-06T11:05:01;11.90;;;2.97;;
71108;SDS011;59614;51.012;-1.648;2023-04-06T11:07:27;13.18;;;2.97;;
71108;SDS011;59614;51.012;-1.648;2023-04-06T11:09:54;17.70;;;3.35;;
71108;SDS011;59614;51.012;-1.648;2023-04-06T11:12:20;13.30;;;2.92;;
71108;SDS011;59614;51.012;-1.648;2023-04-06T11:14:56;15.75;;;3.20;;
71108;SDS011;59614;51.012;-1.648;2023-04-06T11:17:29;12.80;;;3.00;;
71108;SDS011;59614;51.012;-1.648;2023-04-06T11:19:56;11.90;;;3.25;;
71108;SDS011;59614;51.012;-1.648;2023-04-06T11:22:22;12.95;;;2.75;;
71108;SDS011;59614;51.012;-1.648;2023-04-06T11:24:48;13.70;;;3.13;;
71108;SDS011;59614;51.012;-1.648;2023-04-06T11:27:14;16.08;;;2.97;;
71108;SDS011;59614;51.012;-1.648;2023-04-06T11:29:43;13.90;;;2.90;;
71108;SDS011;59614;51.012;-1.648;2023-04-06T11:32:11;15.10;;;3.28;;
71108;SDS011;59614;51.012;-1.648;2023-04-06T11:34:44;14.95;;;2.97;;
71108;SDS011;59614;51.012;-1.648;2023-04-06T11:39:58;14.27;;;2.60;;
71108;SDS011;59614;51.012;-1.648;2023-04-06T11:42:27;12.23;;;2.67;;
71108;SDS011;59614;51.012;-1.648;2023-04-06T11:44:55;11.05;;;3.25;;
71108;SDS011;59614;51.012;-1.648;2023-04-06T11:47:30;13.50;;;2.40;;
71108;SDS011;59614;51.012;-1.648;2023-04-06T11:50:07;14.90;;;2.60;;
71108;SDS011;59614;51.012;-1.648;2023-04-06T11:52:35;10.57;;;2.70;;
71108;SDS011;59614;51.012;-1.648;2023-04-06T11:55:10;11.13;;;2.45;;
71108;SDS011;59614;51.012;-1.648;2023-04-06T11:57:43;16.00;;;3.13;;
71108;SDS011;59614;51.012;-1.648;2023-04-06T12:00:09;10.00;;;2.60;;
71108;SDS011;59614;51.012;-1.648;2023-04-06T12:02:36;10.65;;;2.65;;
71108;SDS011;59614;51.012;-1.648;2023-04-06T12:05:03;7.30;;;2.30;;
71108;SDS011;59614;51.012;-1.648;2023-04-06T12:07:30;9.43;;;2.53;;
71108;SDS011;59614;51.012;-1.648;2023-04-06T12:09:56;9.50;;;2.80;;
71108;SDS011;59614;51.012;-1.648;2023-04-06T12:12:21;9.27;;;2.67;;
71108;SDS011;59614;51.012;-1.648;2023-04-06T12:14:47;9.63;;;2.72;;
71108;SDS011;59614;51.012;-1.648;2023-04-06T12:17:12;12.57;;;2.90;;
71108;SDS011;59614;51.012;-1.648;2023-04-06T12:19:38;7.80;;;2.13;;
71108;SDS011;59614;51.012;-1.648;2023-04-06T12:22:03;5.85;;;1.90;;
71108;SDS011;59614;51.012;-1.648;2023-04-06T12:24:29;9.40;;;2.13;;
71108;SDS011;59614;51.012;-1.648;2023-04-06T12:26:54;10.90;;;2.22;;
71108;SDS011;59614;51.012;-1.648;2023-04-06T12:29:20;9.50;;;2.20;;
71108;SDS011;59614;51.012;-1.648;2023-04-06T12:31:45;7.10;;;1.90;;
71108;SDS011;59614;51.012;-1.648;2023-04-06T12:34:11;8.00;;;2.13;;
71108;SDS011;59614;51.012;-1.648;2023-04-06T12:36:37;6.15;;;2.30;;
71108;SDS011;59614;51.012;-1.648;2023-04-06T12:39:03;9.27;;;2.50;;
71108;SDS011;59614;51.012;-1.648;2023-04-06T12:41:29;4.97;;;1.77;;
71108;SDS011;59614;51.012;-1.648;2023-04-06T12:43:55;6.93;;;2.20;;
71108;SDS011;59614;51.012;-1.648;2023-04-06T12:46:20;7.05;;;1.80;;
71108;SDS011;59614;51.012;-1.648;2023-04-06T12:48:46;6.15;;;1.83;;
71108;SDS011;59614;51.012;-1.648;2023-04-06T12:51:12;4.97;;;1.83;;
71108;SDS011;59614;51.012;-1.648;2023-04-06T12:53:38;5.95;;;1.88;;
71108;SDS011;59614;51.012;-1.648;2023-04-06T12:56:10;5.80;;;1.60;;
71108;SDS011;59614;51.012;-1.648;2023-04-06T12:58:38;3.08;;;1.20;;
71108;SDS011;59614;51.012;-1.648;2023-04-06T13:01:05;3.85;;;1.30;;
71108;SDS011;59614;51.012;-1.648;2023-04-06T13:03:32;2.63;;;1.50;;
71108;SDS011;59614;51.012;-1.648;2023-04-06T13:05:58;4.80;;;1.80;;
71108;SDS011;59614;51.012;-1.648;2023-04-06T13:08:24;5.20;;;1.83;;
71108;SDS011;59614;51.012;-1.648;2023-04-06T13:10:51;4.35;;;1.70;;
71108;SDS011;59614;51.012;-1.648;2023-04-06T13:13:24;6.13;;;2.00;;
71108;SDS011;59614;51.012;-1.648;2023-04-06T13:15:51;8.65;;;2.35;;
71108;SDS011;59614;51.012;-1.648;2023-04-06T13:18:17;5.70;;;1.80;;
71108;SDS011;59614;51.012;-1.648;2023-04-06T13:20:43;7.55;;;2.03;;
71108;SDS011;59614;51.012;-1.648;2023-04-06T13:23:08;5.55;;;1.50;;
71108;SDS011;59614;51.012;-1.648;2023-04-06T13:25:34;4.10;;;1.40;;
71108;SDS011;59614;51.012;-1.648;2023-04-06T13:27:59;5.90;;;1.85;;
71108;SDS011;59614;51.012;-1.648;2023-04-06T13:30:25;6.45;;;2.25;;
71108;SDS011;59614;51.012;-1.648;2023-04-06T13:32:50;5.93;;;1.92;;
71108;SDS011;59614;51.012;-1.648;2023-04-06T13:35:16;6.72;;;2.03;;
71108;SDS011;59614;51.012;-1.648;2023-04-06T13:37:43;10.70;;;1.95;;
71108;SDS011;59614;51.012;-1.648;2023-04-06T13:40:08;5.55;;;1.63;;
71108;SDS011;59614;51.012;-1.648;2023-04-06T13:42:35;8.25;;;2.03;;
71108;SDS011;59614;51.012;-1.648;2023-04-06T13:45:00;8.63;;;1.95;;
71108;SDS011;59614;51.012;-1.648;2023-04-06T13:47:26;10.35;;;1.98;;
71108;SDS011;59614;51.012;-1.648;2023-04-06T13:49:52;9.75;;;2.50;;
71108;SDS011;59614;51.012;-1.648;2023-04-06T13:52:18;5.25;;;2.10;;
71108;SDS011;59614;51.012;-1.648;2023-04-06T13:54:44;6.00;;;2.00;;
71108;SDS011;59614;51.012;-1.648;2023-04-06T13:57:11;6.70;;;2.10;;
71108;SDS011;59614;51.012;-1.648;2023-04-06T13:59:37;7.60;;;2.03;;
71108;SDS011;59614;51.012;-1.648;2023-04-06T14:02:04;9.30;;;1.90;;
71108;SDS011;59614;51.012;-1.648;2023-04-06T14:04:31;6.63;;;2.08;;
71108;SDS011;59614;51.012;-1.648;2023-04-06T14:06:57;7.60;;;1.98;;
71108;SDS011;59614;51.012;-1.648;2023-04-06T14:09:23;7.47;;;2.00;;
71108;SDS011;59614;51.012;-1.648;2023-04-06T14:11:49;4.72;;;2.00;;
71108;SDS011;59614;51.012;-1.648;2023-04-06T14:14:15;5.00;;;1.70;;
71108;SDS011;59614;51.012;-1.648;2023-04-06T14:16:41;5.65;;;1.73;;
71108;SDS011;59614;51.012;-1.648;2023-04-06T14:19:09;6.50;;;1.85;;
71108;SDS011;59614;51.012;-1.648;2023-04-06T14:21:38;5.97;;;1.90;;
71108;SDS011;59614;51.012;-1.648;2023-04-06T14:24:04;5.53;;;1.83;;
71108;SDS011;59614;51.012;-1.648;2023-04-06T14:26:34;6.80;;;2.13;;
71108;SDS011;59614;51.012;-1.648;2023-04-06T14:29:00;5.97;;;2.05;;
71108;SDS011;59614;51.012;-1.648;2023-04-06T14:31:26;5.28;;;1.77;;
71108;SDS011;59614;51.012;-1.648;2023-04-06T14:33:51;6.47;;;1.80;;
71108;SDS011;59614;51.012;-1.648;2023-04-06T14:36:18;4.40;;;1.58;;